sensor_id;sensor_type;location;lat;lon;timestamp;temperature;humidity
8633;DHT22;4354;49.832;10.746;2023-02-26T00:01:12;-0.50;99.90
8633;DHT22;4354;49.832;10.746;2023-02-26T00:03:39;-0.60;99.90
8633;DHT22;4354;49.832;10.746;2023-02-26T00:06:07;-0.60;99.90
8633;DHT22;4354;49.832;10.746;2023-02-26T00:08:34;-0.80;99.90
8633;DHT22;4354;49.832;10.746;2023-02-26T00:11:01;-0.80;99.90
8633;DHT22;4354;49.832;10.746;2023-02-26T00:13:32;-0.80;99.90
8633;DHT22;4354;49.832;10.746;2023-02-26T00:16:00;-1.00;99.90
8633;DHT22;4354;49.832;10.746;2023-02-26T00:18:30;-1.10;99.90
8633;DHT22;4354;49.832;10.746;2023-02-26T00:20:57;-1.20;99.90
8633;DHT22;4354;49.832;10.746;2023-02-26T00:23:24;-1.20;99.90
8633;DHT22;4354;49.832;10.746;2023-02-26T00:25:51;-1.40;99.90
8633;DHT22;4354;49.832;10.746;2023-02-26T00:28:18;-1.50;99.90
8633;DHT22;4354;49.832;10.746;2023-02-26T00:30:45;-1.60;99.90
8633;DHT22;4354;49.832;10.746;2023-02-26T00:33:12;-1.80;99.90
8633;DHT22;4354;49.832;10.746;2023-02-26T00:35:39;-1.90;99.90
8633;DHT22;4354;49.832;10.746;2023-02-26T00:38:10;-2.10;99.90
8633;DHT22;4354;49.832;10.746;2023-02-26T00:40:44;-2.20;99.90
8633;DHT22;4354;49.832;10.746;2023-02-26T00:43:17;-2.30;99.90
8633;DHT22;4354;49.832;10.746;2023-02-26T00:46:06;-2.40;99.90
8633;DHT22;4354;49.832;10.746;2023-02-26T00:54:11;-2.60;99.90
8633;DHT22;4354;49.832;10.746;2023-02-26T00:56:38;-2.70;99.90
8633;DHT22;4354;49.832;10.746;2023-02-26T00:59:05;-2.80;99.90
8633;DHT22;4354;49.832;10.746;2023-02-26T01:01:32;-2.90;99.90
8633;DHT22;4354;49.832;10.746;2023-02-26T01:03:59;-3.00;99.90
8633;DHT22;4354;49.832;10.746;2023-02-26T01:06:32;-2.70;99.90
8633;DHT22;4354;49.832;10.746;2023-02-26T01:09:11;-3.20;99.90
8633;DHT22;4354;49.832;10.746;2023-02-26T01:11:40;-3.30;99.90
8633;DHT22;4354;49.832;10.746;2023-02-26T01:14:07;-3.40;99.90
8633;DHT22;4354;49.832;10.746;2023-02-26T01:16:43;-3.40;99.90
8633;DHT22;4354;49.832;10.746;2023-02-26T01:22:03;-3.50;99.90
8633;DHT22;4354;49.832;10.746;2023-02-26T01:24:33;-3.60;99.90
8633;DHT22;4354;49.832;10.746;2023-02-26T01:27:01;-3.60;99.90
8633;DHT22;4354;49.832;10.746;2023-02-26T01:29:28;-3.40;99.90
8633;DHT22;4354;49.832;10.746;2023-02-26T01:39:45;-3.60;99.90
8633;DHT22;4354;49.832;10.746;2023-02-26T01:42:20;-3.70;99.90
8633;DHT22;4354;49.832;10.746;2023-02-26T01:47:44;-3.70;99.90
8633;DHT22;4354;49.832;10.746;2023-02-26T01:50:19;-3.20;99.90
8633;DHT22;4354;49.832;10.746;2023-02-26T01:55:19;-3.90;99.90
8633;DHT22;4354;49.832;10.746;2023-02-26T01:57:47;-3.80;99.90
8633;DHT22;4354;49.832;10.746;2023-02-26T02:00:15;-3.50;99.90
8633;DHT22;4354;49.832;10.746;2023-02-26T02:02:42;-3.50;99.90
8633;DHT22;4354;49.832;10.746;2023-02-26T03:34:20;-3.00;99.90
8633;DHT22;4354;49.832;10.746;2023-02-26T03:37:06;-3.20;99.90
8633;DHT22;4354;49.832;10.746;2023-02-26T03:39:39;-3.30;99.90
8633;DHT22;4354;49.832;10.746;2023-02-26T03:44:51;-3.40;99.90
8633;DHT22;4354;49.832;10.746;2023-02-26T03:47:19;-3.40;99.90
8633;DHT22;4354;49.832;10.746;2023-02-26T03:50:05;-3.30;99.90
8633;DHT22;4354;49.832;10.746;2023-02-26T03:52:36;-3.20;99.90
8633;DHT22;4354;49.832;10.746;2023-02-26T03:55:17;-3.10;99.90
8633;DHT22;4354;49.832;10.746;2023-02-26T03:57:44;-2.90;99.90
8633;DHT22;4354;49.832;10.746;2023-02-26T04:00:13;-2.70;99.90
8633;DHT22;4354;49.832;10.746;2023-02-26T04:02:55;-2.60;99.90
8633;DHT22;4354;49.832;10.746;2023-02-26T04:05:29;-2.50;99.90
8633;DHT22;4354;49.832;10.746;2023-02-26T04:07:58;-2.50;99.90
8633;DHT22;4354;49.832;10.746;2023-02-26T04:10:33;-2.40;99.90
8633;DHT22;4354;49.832;10.746;2023-02-26T04:13:02;-2.30;99.90
8633;DHT22;4354;49.832;10.746;2023-02-26T04:15:29;-2.30;99.90
8633;DHT22;4354;49.832;10.746;2023-02-26T04:17:56;-2.30;99.90
8633;DHT22;4354;49.832;10.746;2023-02-26T04:20:22;-2.20;99.90
8633;DHT22;4354;49.832;10.746;2023-02-26T04:22:49;-2.20;99.90
8633;DHT22;4354;49.832;10.746;2023-02-26T04:25:16;-2.10;99.90
8633;DHT22;4354;49.832;10.746;2023-02-26T04:27:43;-2.10;99.90
8633;DHT22;4354;49.832;10.746;2023-02-26T04:30:10;-2.00;99.90
8633;DHT22;4354;49.832;10.746;2023-02-26T04:32:37;-2.00;99.90
8633;DHT22;4354;49.832;10.746;2023-02-26T04:35:04;-1.90;99.90
8633;DHT22;4354;49.832;10.746;2023-02-26T04:37:31;-1.90;99.90
8633;DHT22;4354;49.832;10.746;2023-02-26T04:39:57;-1.90;99.90
8633;DHT22;4354;49.832;10.746;2023-02-26T04:42:24;-1.80;99.90
8633;DHT22;4354;49.832;10.746;2023-02-26T04:44:51;-1.80;99.90
8633;DHT22;4354;49.832;10.746;2023-02-26T04:47:17;-1.80;99.90
8633;DHT22;4354;49.832;10.746;2023-02-26T04:49:44;-1.80;99.90
8633;DHT22;4354;49.832;10.746;2023-02-26T04:52:11;-1.60;99.90
8633;DHT22;4354;49.832;10.746;2023-02-26T04:54:37;-1.70;99.90
8633;DHT22;4354;49.832;10.746;2023-02-26T04:57:06;-1.60;99.90
8633;DHT22;4354;49.832;10.746;2023-02-26T04:59:33;-1.50;99.90
8633;DHT22;4354;49.832;10.746;2023-02-26T05:02:00;-1.50;99.90
8633;DHT22;4354;49.832;10.746;2023-02-26T05:04:26;-1.50;99.90
8633;DHT22;4354;49.832;10.746;2023-02-26T05:06:53;-1.50;99.90
8633;DHT22;4354;49.832;10.746;2023-02-26T05:09:21;-1.50;99.90
8633;DHT22;4354;49.832;10.746;2023-02-26T05:11:48;-1.50;99.90
8633;DHT22;4354;49.832;10.746;2023-02-26T05:14:15;-1.50;99.90
8633;DHT22;4354;49.832;10.746;2023-02-26T05:16:43;-1.50;99.90
8633;DHT22;4354;49.832;10.746;2023-02-26T05:19:09;-1.50;99.90
8633;DHT22;4354;49.832;10.746;2023-02-26T05:21:36;-1.50;99.90
8633;DHT22;4354;49.832;10.746;2023-02-26T05:24:03;-1.50;99.90
8633;DHT22;4354;49.832;10.746;2023-02-26T05:26:30;-1.50;99.90
8633;DHT22;4354;49.832;10.746;2023-02-26T05:28:57;-1.50;99.90
8633;DHT22;4354;49.832;10.746;2023-02-26T05:31:24;-1.40;99.90
8633;DHT22;4354;49.832;10.746;2023-02-26T05:33:52;-1.40;99.90
8633;DHT22;4354;49.832;10.746;2023-02-26T05:36:19;-1.40;99.90
8633;DHT22;4354;49.832;10.746;2023-02-26T05:38:46;-1.40;99.90
8633;DHT22;4354;49.832;10.746;2023-02-26T05:41:12;-1.40;99.90
8633;DHT22;4354;49.832;10.746;2023-02-26T05:43:39;-1.40;99.90
8633;DHT22;4354;49.832;10.746;2023-02-26T05:46:07;-1.40;99.90
8633;DHT22;4354;49.832;10.746;2023-02-26T05:48:34;-1.40;99.90
8633;DHT22;4354;49.832;10.746;2023-02-26T05:51:00;-1.40;99.90
8633;DHT22;4354;49.832;10.746;2023-02-26T05:53:28;-1.40;99.90
8633;DHT22;4354;49.832;10.746;2023-02-26T05:55:55;-1.40;99.90
8633;DHT22;4354;49.832;10.746;2023-02-26T05:58:22;-1.40;99.90
8633;DHT22;4354;49.832;10.746;2023-02-26T06:00:49;-1.40;99.90
8633;DHT22;4354;49.832;10.746;2023-02-26T06:03:15;-1.40;99.90
8633;DHT22;4354;49.832;10.746;2023-02-26T06:05:42;-1.40;99.90
8633;DHT22;4354;49.832;10.746;2023-02-26T06:08:09;-1.40;99.90
8633;DHT22;4354;49.832;10.746;2023-02-26T06:10:37;-1.40;99.90
8633;DHT22;4354;49.832;10.746;2023-02-26T06:13:04;-1.40;99.90
8633;DHT22;4354;49.832;10.746;2023-02-26T06:15:31;-1.30;99.90
8633;DHT22;4354;49.832;10.746;2023-02-26T06:17:58;-1.30;99.90
8633;DHT22;4354;49.832;10.746;2023-02-26T06:20:24;-1.30;99.90
8633;DHT22;4354;49.832;10.746;2023-02-26T06:22:51;-1.30;99.90
8633;DHT22;4354;49.832;10.746;2023-02-26T06:25:18;-1.20;99.90
8633;DHT22;4354;49.832;10.746;2023-02-26T06:27:45;-1.20;99.90
8633;DHT22;4354;49.832;10.746;2023-02-26T06:30:12;-1.10;99.90
8633;DHT22;4354;49.832;10.746;2023-02-26T06:32:39;-1.10;99.90
8633;DHT22;4354;49.832;10.746;2023-02-26T06:35:06;-1.10;99.90
8633;DHT22;4354;49.832;10.746;2023-02-26T06:37:33;-1.10;99.90
8633;DHT22;4354;49.832;10.746;2023-02-26T06:39:59;-1.00;99.90
8633;DHT22;4354;49.832;10.746;2023-02-26T06:42:26;-1.00;99.90
8633;DHT22;4354;49.832;10.746;2023-02-26T06:44:53;-1.00;99.90
8633;DHT22;4354;49.832;10.746;2023-02-26T06:47:19;-0.90;99.90
8633;DHT22;4354;49.832;10.746;2023-02-26T06:49:46;-0.90;99.90
8633;DHT22;4354;49.832;10.746;2023-02-26T06:52:14;-0.80;99.90
8633;DHT22;4354;49.832;10.746;2023-02-26T06:54:41;-0.80;99.90
8633;DHT22;4354;49.832;10.746;2023-02-26T06:57:07;-0.80;99.90
8633;DHT22;4354;49.832;10.746;2023-02-26T06:59:35;-0.70;99.90
8633;DHT22;4354;49.832;10.746;2023-02-26T07:02:02;-0.60;99.90
8633;DHT22;4354;49.832;10.746;2023-02-26T07:04:29;-0.50;99.90
8633;DHT22;4354;49.832;10.746;2023-02-26T07:06:56;-0.40;99.90
8633;DHT22;4354;49.832;10.746;2023-02-26T07:09:22;-0.30;99.90
8633;DHT22;4354;49.832;10.746;2023-02-26T07:11:49;-0.40;99.90
8633;DHT22;4354;49.832;10.746;2023-02-26T07:14:16;-0.30;99.90
8633;DHT22;4354;49.832;10.746;2023-02-26T07:16:43;-0.20;99.90
8633;DHT22;4354;49.832;10.746;2023-02-26T07:19:10;-0.30;99.90
8633;DHT22;4354;49.832;10.746;2023-02-26T07:21:37;-0.40;99.90
8633;DHT22;4354;49.832;10.746;2023-02-26T07:24:07;-0.20;99.90
8633;DHT22;4354;49.832;10.746;2023-02-26T07:26:33;-0.10;99.90
8633;DHT22;4354;49.832;10.746;2023-02-26T07:29:00;0.00;99.90
8633;DHT22;4354;49.832;10.746;2023-02-26T07:31:27;0.00;99.90
8633;DHT22;4354;49.832;10.746;2023-02-26T07:33:54;0.10;99.90
8633;DHT22;4354;49.832;10.746;2023-02-26T07:36:21;0.10;99.90
8633;DHT22;4354;49.832;10.746;2023-02-26T07:38:48;0.30;99.90
8633;DHT22;4354;49.832;10.746;2023-02-26T07:41:15;0.60;99.90
8633;DHT22;4354;49.832;10.746;2023-02-26T07:43:41;0.70;99.90
8633;DHT22;4354;49.832;10.746;2023-02-26T07:46:08;0.80;99.90
8633;DHT22;4354;49.832;10.746;2023-02-26T07:48:35;0.90;99.90
8633;DHT22;4354;49.832;10.746;2023-02-26T07:51:03;0.90;99.90
8633;DHT22;4354;49.832;10.746;2023-02-26T07:53:30;0.80;99.90
8633;DHT22;4354;49.832;10.746;2023-02-26T07:55:56;0.80;99.90
8633;DHT22;4354;49.832;10.746;2023-02-26T07:58:23;0.70;99.90
8633;DHT22;4354;49.832;10.746;2023-02-26T08:00:50;0.60;99.90
8633;DHT22;4354;49.832;10.746;2023-02-26T08:03:19;0.50;99.90
8633;DHT22;4354;49.832;10.746;2023-02-26T08:05:46;0.40;99.90
8633;DHT22;4354;49.832;10.746;2023-02-26T08:08:13;0.40;99.90
8633;DHT22;4354;49.832;10.746;2023-02-26T08:10:39;0.50;99.90
8633;DHT22;4354;49.832;10.746;2023-02-26T08:13:08;0.60;99.90
8633;DHT22;4354;49.832;10.746;2023-02-26T08:15:35;0.60;99.90
8633;DHT22;4354;49.832;10.746;2023-02-26T08:18:02;0.70;99.90
8633;DHT22;4354;49.832;10.746;2023-02-26T08:20:31;0.70;99.90
8633;DHT22;4354;49.832;10.746;2023-02-26T08:22:57;0.70;99.90
8633;DHT22;4354;49.832;10.746;2023-02-26T08:25:24;0.70;99.90
8633;DHT22;4354;49.832;10.746;2023-02-26T08:27:51;0.70;99.90
8633;DHT22;4354;49.832;10.746;2023-02-26T08:30:18;0.90;99.90
8633;DHT22;4354;49.832;10.746;2023-02-26T08:32:45;1.40;99.90
8633;DHT22;4354;49.832;10.746;2023-02-26T08:35:11;1.80;99.90
8633;DHT22;4354;49.832;10.746;2023-02-26T08:37:38;2.10;99.90
8633;DHT22;4354;49.832;10.746;2023-02-26T08:40:06;2.20;99.90
8633;DHT22;4354;49.832;10.746;2023-02-26T08:42:33;2.50;99.90
8633;DHT22;4354;49.832;10.746;2023-02-26T08:45:00;2.90;99.90
8633;DHT22;4354;49.832;10.746;2023-02-26T08:47:27;3.90;99.90
8633;DHT22;4354;49.832;10.746;2023-02-26T08:49:55;5.70;99.90
8633;DHT22;4354;49.832;10.746;2023-02-26T08:54:49;10.40;98.80
8633;DHT22;4354;49.832;10.746;2023-02-26T08:57:16;11.80;89.80
8633;DHT22;4354;49.832;10.746;2023-02-26T08:59:43;11.40;88.30
8633;DHT22;4354;49.832;10.746;2023-02-26T09:02:11;12.10;85.10
8633;DHT22;4354;49.832;10.746;2023-02-26T09:04:38;12.30;79.50
8633;DHT22;4354;49.832;10.746;2023-02-26T09:07:04;12.00;78.20
8633;DHT22;4354;49.832;10.746;2023-02-26T09:09:31;10.90;76.20
8633;DHT22;4354;49.832;10.746;2023-02-26T09:11:58;9.50;79.20
8633;DHT22;4354;49.832;10.746;2023-02-26T09:14:25;7.80;81.20
8633;DHT22;4354;49.832;10.746;2023-02-26T09:16:51;6.70;84.70
8633;DHT22;4354;49.832;10.746;2023-02-26T09:19:18;5.80;87.10
8633;DHT22;4354;49.832;10.746;2023-02-26T09:21:45;5.50;91.70
8633;DHT22;4354;49.832;10.746;2023-02-26T09:24:13;5.30;91.80
8633;DHT22;4354;49.832;10.746;2023-02-26T09:26:40;5.20;93.00
8633;DHT22;4354;49.832;10.746;2023-02-26T09:29:07;5.20;93.50
8633;DHT22;4354;49.832;10.746;2023-02-26T09:31:34;5.30;93.60
8633;DHT22;4354;49.832;10.746;2023-02-26T09:34:01;4.80;94.90
8633;DHT22;4354;49.832;10.746;2023-02-26T09:36:28;4.20;96.00
8633;DHT22;4354;49.832;10.746;2023-02-26T09:38:57;3.40;97.30
8633;DHT22;4354;49.832;10.746;2023-02-26T09:41:29;3.10;98.50
8633;DHT22;4354;49.832;10.746;2023-02-26T09:44:35;2.70;99.90
8633;DHT22;4354;49.832;10.746;2023-02-26T09:51:56;1.90;99.90
8633;DHT22;4354;49.832;10.746;2023-02-26T09:54:28;1.80;99.90
8633;DHT22;4354;49.832;10.746;2023-02-26T09:56:57;1.90;99.90
8633;DHT22;4354;49.832;10.746;2023-02-26T09:59:27;1.90;99.90
8633;DHT22;4354;49.832;10.746;2023-02-26T10:01:58;1.90;99.90
8633;DHT22;4354;49.832;10.746;2023-02-26T10:07:44;1.80;99.90
8633;DHT22;4354;49.832;10.746;2023-02-26T10:12:51;1.80;99.90
8633;DHT22;4354;49.832;10.746;2023-02-26T10:15:29;1.90;99.90
8633;DHT22;4354;49.832;10.746;2023-02-26T10:18:13;2.00;99.90
8633;DHT22;4354;49.832;10.746;2023-02-26T10:21:13;2.10;99.90
8633;DHT22;4354;49.832;10.746;2023-02-26T10:23:54;2.40;99.90
8633;DHT22;4354;49.832;10.746;2023-02-26T10:26:40;6.60;99.90
8633;DHT22;4354;49.832;10.746;2023-02-26T10:37:46;8.80;92.00
8633;DHT22;4354;49.832;10.746;2023-02-26T10:40:38;8.70;91.20
8633;DHT22;4354;49.832;10.746;2023-02-26T10:43:28;7.80;91.60
8633;DHT22;4354;49.832;10.746;2023-02-26T10:48:42;5.70;92.10
8633;DHT22;4354;49.832;10.746;2023-02-26T10:51:14;4.60;93.70
8633;DHT22;4354;49.832;10.746;2023-02-26T10:53:51;4.30;94.50
8633;DHT22;4354;49.832;10.746;2023-02-26T10:56:25;3.70;96.40
8633;DHT22;4354;49.832;10.746;2023-02-26T10:58:53;3.50;97.90
8633;DHT22;4354;49.832;10.746;2023-02-26T11:01:22;3.30;98.40
8633;DHT22;4354;49.832;10.746;2023-02-26T11:03:55;3.20;98.80
8633;DHT22;4354;49.832;10.746;2023-02-26T11:06:27;3.20;98.30
8633;DHT22;4354;49.832;10.746;2023-02-26T11:08:56;3.40;98.90
8633;DHT22;4354;49.832;10.746;2023-02-26T11:14:14;3.60;98.10
8633;DHT22;4354;49.832;10.746;2023-02-26T11:16:53;3.70;98.20
8633;DHT22;4354;49.832;10.746;2023-02-26T11:19:49;3.70;97.60
8633;DHT22;4354;49.832;10.746;2023-02-26T11:22:15;3.80;95.90
8633;DHT22;4354;49.832;10.746;2023-02-26T11:24:46;3.70;96.00
8633;DHT22;4354;49.832;10.746;2023-02-26T11:27:20;3.80;96.30
8633;DHT22;4354;49.832;10.746;2023-02-26T11:29:53;3.70;95.60
8633;DHT22;4354;49.832;10.746;2023-02-26T11:32:23;3.60;95.90
8633;DHT22;4354;49.832;10.746;2023-02-26T11:34:54;3.30;96.80
8633;DHT22;4354;49.832;10.746;2023-02-26T11:37:33;3.30;97.60
8633;DHT22;4354;49.832;10.746;2023-02-26T11:40:16;3.40;98.40
8633;DHT22;4354;49.832;10.746;2023-02-26T11:42:57;3.40;99.70
8633;DHT22;4354;49.832;10.746;2023-02-26T11:45:24;3.50;99.90
8633;DHT22;4354;49.832;10.746;2023-02-26T11:48:15;3.40;99.90
8633;DHT22;4354;49.832;10.746;2023-02-26T11:50:46;3.20;99.90
8633;DHT22;4354;49.832;10.746;2023-02-26T11:53:18;3.20;99.90
8633;DHT22;4354;49.832;10.746;2023-02-26T11:55:47;3.30;99.90
8633;DHT22;4354;49.832;10.746;2023-02-26T11:58:22;3.40;99.90
8633;DHT22;4354;49.832;10.746;2023-02-26T12:00:53;3.50;99.90
8633;DHT22;4354;49.832;10.746;2023-02-26T12:03:27;3.30;99.00
8633;DHT22;4354;49.832;10.746;2023-02-26T12:05:56;3.20;98.80
8633;DHT22;4354;49.832;10.746;2023-02-26T12:08:32;3.00;99.50
8633;DHT22;4354;49.832;10.746;2023-02-26T12:50:30;4.30;92.40
8633;DHT22;4354;49.832;10.746;2023-02-26T13:10:27;4.00;92.30
8633;DHT22;4354;49.832;10.746;2023-02-26T13:13:06;4.20;93.00
8633;DHT22;4354;49.832;10.746;2023-02-26T13:18:42;5.00;90.80
8633;DHT22;4354;49.832;10.746;2023-02-26T13:21:20;4.70;90.10
8633;DHT22;4354;49.832;10.746;2023-02-26T13:24:00;4.40;89.90
8633;DHT22;4354;49.832;10.746;2023-02-26T13:26:32;4.40;91.80
8633;DHT22;4354;49.832;10.746;2023-02-26T13:29:02;4.50;90.50
8633;DHT22;4354;49.832;10.746;2023-02-26T13:31:40;4.30;90.20
8633;DHT22;4354;49.832;10.746;2023-02-26T13:34:29;4.20;90.40
8633;DHT22;4354;49.832;10.746;2023-02-26T13:36:57;4.10;90.80
8633;DHT22;4354;49.832;10.746;2023-02-26T13:39:39;3.90;91.00
8633;DHT22;4354;49.832;10.746;2023-02-26T13:47:33;4.40;91.40
8633;DHT22;4354;49.832;10.746;2023-02-26T13:52:34;4.00;90.30
8633;DHT22;4354;49.832;10.746;2023-02-26T13:55:33;4.10;90.90
8633;DHT22;4354;49.832;10.746;2023-02-26T13:57:52;4.10;90.70
8633;DHT22;4354;49.832;10.746;2023-02-26T14:00:30;4.10;90.10
8633;DHT22;4354;49.832;10.746;2023-02-26T14:11:02;4.90;90.10
8633;DHT22;4354;49.832;10.746;2023-02-26T14:13:38;4.80;87.10
8633;DHT22;4354;49.832;10.746;2023-02-26T14:16:22;4.60;86.10
8633;DHT22;4354;49.832;10.746;2023-02-26T14:18:51;4.30;85.10
8633;DHT22;4354;49.832;10.746;2023-02-26T14:26:30;3.80;88.70
8633;DHT22;4354;49.832;10.746;2023-02-26T14:29:11;3.60;89.90
8633;DHT22;4354;49.832;10.746;2023-02-26T14:31:50;3.20;86.60
8633;DHT22;4354;49.832;10.746;2023-02-26T14:34:25;3.10;88.20
8633;DHT22;4354;49.832;10.746;2023-02-26T14:36:59;2.90;87.80
8633;DHT22;4354;49.832;10.746;2023-02-26T14:39:39;2.90;90.10
8633;DHT22;4354;49.832;10.746;2023-02-26T14:42:14;3.00;89.90
8633;DHT22;4354;49.832;10.746;2023-02-26T14:44:46;2.90;86.90
8633;DHT22;4354;49.832;10.746;2023-02-26T14:47:14;2.90;86.40
8633;DHT22;4354;49.832;10.746;2023-02-26T14:49:45;2.80;87.30
8633;DHT22;4354;49.832;10.746;2023-02-26T15:00:48;2.60;90.30
8633;DHT22;4354;49.832;10.746;2023-02-26T15:03:49;2.60;91.10
8633;DHT22;4354;49.832;10.746;2023-02-26T15:17:12;2.50;89.50
8633;DHT22;4354;49.832;10.746;2023-02-26T15:24:49;2.50;90.00
8633;DHT22;4354;49.832;10.746;2023-02-26T15:27:18;2.40;89.90
8633;DHT22;4354;49.832;10.746;2023-02-26T15:29:46;2.40;90.40
8633;DHT22;4354;49.832;10.746;2023-02-26T15:32:23;2.30;90.50
8633;DHT22;4354;49.832;10.746;2023-02-26T15:35:00;2.20;90.80
8633;DHT22;4354;49.832;10.746;2023-02-26T15:37:28;2.10;90.80
8633;DHT22;4354;49.832;10.746;2023-02-26T15:39:59;2.10;91.20
8633;DHT22;4354;49.832;10.746;2023-02-26T15:42:33;2.00;90.90
8633;DHT22;4354;49.832;10.746;2023-02-26T15:45:47;1.90;90.20
8633;DHT22;4354;49.832;10.746;2023-02-26T15:47:56;1.90;90.30
8633;DHT22;4354;49.832;10.746;2023-02-26T15:50:27;1.80;90.80
8633;DHT22;4354;49.832;10.746;2023-02-26T15:52:58;1.80;90.70
8633;DHT22;4354;49.832;10.746;2023-02-26T15:55:27;1.80;91.20
8633;DHT22;4354;49.832;10.746;2023-02-26T15:57:54;1.90;90.90
8633;DHT22;4354;49.832;10.746;2023-02-26T16:00:21;1.80;91.50
8633;DHT22;4354;49.832;10.746;2023-02-26T16:02:55;1.80;91.30
8633;DHT22;4354;49.832;10.746;2023-02-26T16:05:25;1.70;92.70
8633;DHT22;4354;49.832;10.746;2023-02-26T16:07:52;1.60;92.10
8633;DHT22;4354;49.832;10.746;2023-02-26T16:10:39;1.60;92.00
8633;DHT22;4354;49.832;10.746;2023-02-26T16:13:13;1.60;92.80
8633;DHT22;4354;49.832;10.746;2023-02-26T16:15:40;1.50;92.60
8633;DHT22;4354;49.832;10.746;2023-02-26T16:18:16;1.40;92.20
8633;DHT22;4354;49.832;10.746;2023-02-26T16:20:46;1.30;92.30
8633;DHT22;4354;49.832;10.746;2023-02-26T16:23:20;1.20;92.10
8633;DHT22;4354;49.832;10.746;2023-02-26T16:25:56;1.00;92.50
8633;DHT22;4354;49.832;10.746;2023-02-26T16:28:38;0.80;92.60
8633;DHT22;4354;49.832;10.746;2023-02-26T16:31:17;0.80;92.80
8633;DHT22;4354;49.832;10.746;2023-02-26T16:33:57;0.70;93.20
8633;DHT22;4354;49.832;10.746;2023-02-26T16:36:29;0.60;94.10
8633;DHT22;4354;49.832;10.746;2023-02-26T16:39:00;0.50;94.70
8633;DHT22;4354;49.832;10.746;2023-02-26T16:41:30;0.30;94.00
8633;DHT22;4354;49.832;10.746;2023-02-26T16:43:58;0.20;94.10
8633;DHT22;4354;49.832;10.746;2023-02-26T16:46:41;0.10;94.40
8633;DHT22;4354;49.832;10.746;2023-02-26T16:49:17;0.00;95.60
8633;DHT22;4354;49.832;10.746;2023-02-26T16:51:46;0.00;95.40
8633;DHT22;4354;49.832;10.746;2023-02-26T16:54:19;-0.20;96.00
8633;DHT22;4354;49.832;10.746;2023-02-26T16:56:56;-0.20;96.60
8633;DHT22;4354;49.832;10.746;2023-02-26T17:01:58;-0.40;99.90
8633;DHT22;4354;49.832;10.746;2023-02-26T17:04:30;-0.40;99.90
8633;DHT22;4354;49.832;10.746;2023-02-26T17:06:57;-0.40;99.90
8633;DHT22;4354;49.832;10.746;2023-02-26T17:09:37;-0.40;99.90
8633;DHT22;4354;49.832;10.746;2023-02-26T17:12:28;-0.40;99.90
8633;DHT22;4354;49.832;10.746;2023-02-26T17:14:58;-0.40;99.90
8633;DHT22;4354;49.832;10.746;2023-02-26T17:17:26;-0.30;99.90
8633;DHT22;4354;49.832;10.746;2023-02-26T17:19:53;-0.40;99.90
8633;DHT22;4354;49.832;10.746;2023-02-26T17:22:27;-0.40;99.90
8633;DHT22;4354;49.832;10.746;2023-02-26T17:24:54;-0.50;99.90
8633;DHT22;4354;49.832;10.746;2023-02-26T17:27:31;-0.60;99.90
8633;DHT22;4354;49.832;10.746;2023-02-26T17:30:00;-0.70;99.90
8633;DHT22;4354;49.832;10.746;2023-02-26T17:32:27;-0.70;99.90
8633;DHT22;4354;49.832;10.746;2023-02-26T17:34:57;-0.80;99.90
8633;DHT22;4354;49.832;10.746;2023-02-26T17:37:29;-0.90;99.90
8633;DHT22;4354;49.832;10.746;2023-02-26T17:39:56;-0.80;99.90
8633;DHT22;4354;49.832;10.746;2023-02-26T17:42:25;-0.70;99.90
8633;DHT22;4354;49.832;10.746;2023-02-26T17:44:52;-0.60;99.90
8633;DHT22;4354;49.832;10.746;2023-02-26T17:47:23;-0.50;99.90
8633;DHT22;4354;49.832;10.746;2023-02-26T17:49:49;-0.50;99.90
8633;DHT22;4354;49.832;10.746;2023-02-26T17:52:16;-0.40;99.90
8633;DHT22;4354;49.832;10.746;2023-02-26T17:54:43;-0.50;99.90
8633;DHT22;4354;49.832;10.746;2023-02-26T17:57:18;-0.50;99.90
8633;DHT22;4354;49.832;10.746;2023-02-26T17:59:45;-0.60;99.90
8633;DHT22;4354;49.832;10.746;2023-02-26T18:02:23;-0.80;99.90
8633;DHT22;4354;49.832;10.746;2023-02-26T18:04:53;-0.90;99.90
8633;DHT22;4354;49.832;10.746;2023-02-26T18:07:20;-0.90;99.90
8633;DHT22;4354;49.832;10.746;2023-02-26T18:09:49;-1.00;99.90
8633;DHT22;4354;49.832;10.746;2023-02-26T18:12:20;-1.10;99.90
8633;DHT22;4354;49.832;10.746;2023-02-26T18:14:48;-1.10;99.90
8633;DHT22;4354;49.832;10.746;2023-02-26T18:17:20;-1.20;99.90
8633;DHT22;4354;49.832;10.746;2023-02-26T18:19:47;-1.20;99.90
8633;DHT22;4354;49.832;10.746;2023-02-26T18:22:19;-1.30;99.90
8633;DHT22;4354;49.832;10.746;2023-02-26T18:24:49;-1.40;99.90
8633;DHT22;4354;49.832;10.746;2023-02-26T18:27:22;-1.50;99.90
8633;DHT22;4354;49.832;10.746;2023-02-26T18:29:49;-1.40;99.90
8633;DHT22;4354;49.832;10.746;2023-02-26T18:32:20;-1.50;99.90
8633;DHT22;4354;49.832;10.746;2023-02-26T18:34:48;-1.50;99.90
8633;DHT22;4354;49.832;10.746;2023-02-26T18:37:25;-1.50;99.90
8633;DHT22;4354;49.832;10.746;2023-02-26T18:39:52;-1.50;99.90
8633;DHT22;4354;49.832;10.746;2023-02-26T18:42:22;-1.50;99.90
8633;DHT22;4354;49.832;10.746;2023-02-26T18:44:49;-1.50;99.90
8633;DHT22;4354;49.832;10.746;2023-02-26T18:47:17;-1.50;99.90
8633;DHT22;4354;49.832;10.746;2023-02-26T18:49:45;-1.40;99.90
8633;DHT22;4354;49.832;10.746;2023-02-26T18:52:12;-1.30;99.90
8633;DHT22;4354;49.832;10.746;2023-02-26T18:54:39;-1.10;99.90
8633;DHT22;4354;49.832;10.746;2023-02-26T18:57:07;-1.10;99.90
8633;DHT22;4354;49.832;10.746;2023-02-26T18:59:34;-1.00;99.90
8633;DHT22;4354;49.832;10.746;2023-02-26T19:02:03;-0.90;99.90
8633;DHT22;4354;49.832;10.746;2023-02-26T19:04:30;-0.90;99.90
8633;DHT22;4354;49.832;10.746;2023-02-26T19:06:57;-0.80;99.90
8633;DHT22;4354;49.832;10.746;2023-02-26T19:09:24;-0.80;99.90
8633;DHT22;4354;49.832;10.746;2023-02-26T19:11:52;-0.80;99.90
8633;DHT22;4354;49.832;10.746;2023-02-26T19:14:19;-0.90;99.90
8633;DHT22;4354;49.832;10.746;2023-02-26T19:16:46;-0.80;99.90
8633;DHT22;4354;49.832;10.746;2023-02-26T19:19:12;-0.90;99.90
8633;DHT22;4354;49.832;10.746;2023-02-26T19:21:39;-1.00;99.90
8633;DHT22;4354;49.832;10.746;2023-02-26T19:24:08;-1.10;99.90
8633;DHT22;4354;49.832;10.746;2023-02-26T19:26:36;-1.10;99.90
8633;DHT22;4354;49.832;10.746;2023-02-26T19:29:05;-1.10;99.90
8633;DHT22;4354;49.832;10.746;2023-02-26T19:31:32;-1.20;99.90
8633;DHT22;4354;49.832;10.746;2023-02-26T19:34:02;-1.30;99.90
8633;DHT22;4354;49.832;10.746;2023-02-26T19:36:28;-1.40;99.90
8633;DHT22;4354;49.832;10.746;2023-02-26T19:39:00;-1.40;99.90
8633;DHT22;4354;49.832;10.746;2023-02-26T19:41:27;-1.50;99.90
8633;DHT22;4354;49.832;10.746;2023-02-26T19:43:54;-1.60;99.90
8633;DHT22;4354;49.832;10.746;2023-02-26T19:46:22;-1.60;99.90
8633;DHT22;4354;49.832;10.746;2023-02-26T19:48:49;-1.50;99.90
8633;DHT22;4354;49.832;10.746;2023-02-26T19:51:16;-1.60;99.90
8633;DHT22;4354;49.832;10.746;2023-02-26T19:53:44;-1.50;99.90
8633;DHT22;4354;49.832;10.746;2023-02-26T19:56:11;-1.50;99.90
8633;DHT22;4354;49.832;10.746;2023-02-26T19:58:38;-1.50;99.90
8633;DHT22;4354;49.832;10.746;2023-02-26T20:01:05;-1.60;99.90
8633;DHT22;4354;49.832;10.746;2023-02-26T20:03:32;-1.60;99.90
8633;DHT22;4354;49.832;10.746;2023-02-26T20:05:59;-1.60;99.90
8633;DHT22;4354;49.832;10.746;2023-02-26T20:08:27;-1.70;99.90
8633;DHT22;4354;49.832;10.746;2023-02-26T20:10:56;-1.70;99.90
8633;DHT22;4354;49.832;10.746;2023-02-26T20:13:24;-1.80;99.90
8633;DHT22;4354;49.832;10.746;2023-02-26T20:15:56;-1.80;99.90
8633;DHT22;4354;49.832;10.746;2023-02-26T20:18:27;-1.70;99.90
8633;DHT22;4354;49.832;10.746;2023-02-26T20:20:57;-1.70;99.90